Time;durP1;ratioP1;P1;durP2;ratioP2;P2;SDS_P1;SDS_P2;PMS_P1;PMS_P2;Temp;Humidity;BMP_temperature;BMP_pressure;BME280_temperature;BME280_humidity;BME280_pressure;Samples;Min_cycle;Max_cycle;Signal;HPM_P1;HPM_P2
2023/05/29 00:00:40;;;;;;;6.63;1.05;;;;;;;10.95;59.41;101367.59;4947097;28;20053;-46
2023/05/29 00:03:09;;;;;;;10.13;2.72;;;;;;;10.91;59.24;101366.63;4946076;28;20756;-47
2023/05/29 00:05:36;;;;;;;3.30;0.93;;;;;;;10.88;59.56;101365.72;4957737;28;20051;-45
2023/05/29 00:08:03;;;;;;;4.03;1.10;;;;;;;10.83;59.56;101367.34;4951847;28;20057;-44
2023/05/29 00:10:31;;;;;;;9.30;1.35;;;;;;;10.79;59.40;101369.03;4952268;28;20086;-46
2023/05/29 00:12:58;;;;;;;5.70;1.17;;;;;;;10.77;59.45;101361.22;4956298;28;20059;-46
2023/05/29 00:15:25;;;;;;;5.22;1.13;;;;;;;10.75;59.34;101368.13;4950168;28;20043;-46
2023/05/29 00:17:52;;;;;;;4.03;1.77;;;;;;;10.73;60.11;101366.31;4959345;28;20061;-47
2023/05/29 00:20:19;;;;;;;4.32;1.80;;;;;;;10.70;60.17;101361.97;4957921;28;20420;-49
2023/05/29 00:22:47;;;;;;;5.60;1.17;;;;;;;10.67;59.96;101372.25;4950900;28;20054;-45
2023/05/29 00:25:15;;;;;;;5.68;1.08;;;;;;;10.63;59.82;101371.34;4953655;28;20122;-46
2023/05/29 00:27:43;;;;;;;4.47;1.42;;;;;;;10.61;59.63;101373.03;4961893;28;20054;-46
2023/05/29 00:30:12;;;;;;;4.90;1.83;;;;;;;10.58;60.30;101378.16;4958806;28;20626;-48
2023/05/29 00:32:40;;;;;;;6.30;1.17;;;;;;;10.54;59.89;101377.22;4957696;28;20130;-47
2023/05/29 00:35:08;;;;;;;6.43;1.10;;;;;;;10.52;60.07;101378.94;4951025;28;20066;-46
2023/05/29 00:37:37;;;;;;;6.30;1.05;;;;;;;10.50;60.10;101375.41;4957785;28;20058;-45
2023/05/29 00:40:07;;;;;;;5.63;1.08;;;;;;;10.48;60.17;101379.72;4953723;28;20045;-46
2023/05/29 00:42:34;;;;;;;;;;;;;;;10.29;60.46;101379.31;4956367;28;20063;-44
2023/05/29 00:45:03;;;;;;;11.27;1.35;;;;;;;10.38;59.80;101381.22;4949290;28;19933;-45
2023/05/29 00:47:31;;;;;;;4.40;1.30;;;;;;;10.38;60.38;101372.56;4957039;28;20457;-44
2023/05/29 00:50:01;;;;;;;4.15;1.13;;;;;;;10.36;59.88;101372.53;4957979;28;20047;-46
2023/05/29 00:52:29;;;;;;;2.75;0.82;;;;;;;10.34;59.96;101363.84;4957989;28;20055;-45
2023/05/29 00:55:01;;;;;;;7.75;1.40;;;;;;;10.33;60.36;101366.44;4957719;28;20053;-44
2023/05/29 00:57:29;;;;;;;4.13;0.90;;;;;;;10.29;59.81;101371.53;4949696;28;20474;-47
2023/05/29 00:59:58;;;;;;;7.30;2.13;;;;;;;10.28;60.01;101374.09;4950508;28;20447;-47
2023/05/29 01:02:26;;;;;;;4.47;1.20;;;;;;;10.25;60.33;101381.81;4956168;28;20066;-44
2023/05/29 01:04:54;;;;;;;4.15;1.13;;;;;;;10.21;60.71;101386.06;4953630;28;20043;-44
2023/05/29 01:07:21;;;;;;;6.65;1.40;;;;;;;10.20;60.18;101386.03;4951791;28;20047;-45
2023/05/29 01:09:48;;;;;;;8.10;1.45;;;;;;;10.13;60.50;101380.72;4964459;28;20051;-48
2023/05/29 01:12:41;;;;;;;2.67;0.93;;;;;;;10.05;60.71;101386.56;4950971;28;20061;-46
2023/05/29 01:18:12;;;;;;;6.20;1.92;;;;;;;9.89;61.49;101392.28;5058946;28;20387;-45
2023/05/29 01:23:58;;;;;;;7.82;2.17;;;;;;;10.32;61.04;101385.38;5023745;27;20402;-44
2023/05/29 01:29:23;;;;;;;3.83;0.90;;;;;;;9.93;61.02;101385.47;5017823;27;20402;-48
2023/05/29 01:31:51;;;;;;;5.28;1.00;;;;;;;9.89;61.30;101383.66;5011642;28;20115;-43
2023/05/29 01:34:18;;;;;;;9.32;1.48;;;;;;;9.84;61.29;101382.69;5017652;28;20176;-47
2023/05/29 01:36:46;;;;;;;5.43;1.05;;;;;;;9.82;61.22;101385.25;5022030;28;20046;-46
2023/05/29 01:39:14;;;;;;;5.88;1.33;;;;;;;9.80;61.04;101386.03;5022856;28;20045;-44
2023/05/29 01:41:43;;;;;;;6.07;1.33;;;;;;;9.77;60.77;101387.72;5024193;28;20073;-45
2023/05/29 01:44:11;;;;;;;7.18;1.52;;;;;;;9.74;61.07;101387.66;5018586;28;20425;-44
2023/05/29 01:46:39;;;;;;;5.88;1.88;;;;;;;9.71;60.96;101387.59;5017968;28;20252;-44
2023/05/29 01:49:07;;;;;;;5.80;1.10;;;;;;;9.68;61.29;101392.69;5022284;28;20049;-45
2023/05/29 01:51:33;;;;;;;7.00;1.15;;;;;;;9.65;61.09;101392.63;5022703;28;20049;-46
2023/05/29 01:54:01;;;;;;;5.15;1.20;;;;;;;9.64;61.29;101396.06;5021361;28;20060;-47
2023/05/29 01:56:28;;;;;;;9.65;0.90;;;;;;;9.61;60.81;101390.81;5022328;28;20050;-47
2023/05/29 01:58:56;;;;;;;6.57;3.03;;;;;;;9.59;61.13;101389.91;5022552;28;20488;-47
2023/05/29 02:01:24;;;;;;;3.58;0.65;;;;;;;9.56;61.17;101389.84;5020082;28;20129;-45
2023/05/29 02:03:51;;;;;;;7.80;0.88;;;;;;;9.52;61.55;101382.00;5023261;28;20054;-46
2023/05/29 02:06:18;;;;;;;8.60;0.77;;;;;;;9.47;61.02;101378.44;5025087;28;20050;-46
2023/05/29 02:08:44;;;;;;;7.93;1.13;;;;;;;9.45;61.02;101385.28;5023302;28;20356;-46
2023/05/29 02:11:11;;;;;;;4.03;1.20;;;;;;;9.42;61.33;101386.94;5021548;28;20045;-47
2023/05/29 02:13:38;;;;;;;5.68;0.70;;;;;;;9.39;61.12;101385.13;5022126;28;20107;-46
2023/05/29 02:16:05;;;;;;;3.78;1.10;;;;;;;9.37;60.81;101387.69;5015920;28;20048;-45
2023/05/29 02:18:34;;;;;;;4.97;0.85;;;;;;;9.33;61.58;101385.00;5022613;28;20132;-44
2023/05/29 02:21:02;;;;;;;6.03;1.00;;;;;;;9.29;61.86;101391.78;5026117;28;20057;-45
2023/05/29 02:23:28;;;;;;;5.65;1.15;;;;;;;9.25;61.72;101387.38;5022677;28;20046;-45
2023/05/29 02:25:55;;;;;;;5.45;0.88;;;;;;;9.23;61.77;101379.56;5022238;28;20050;-44
2023/05/29 02:28:22;;;;;;;4.70;0.93;;;;;;;9.20;61.66;101384.69;5021959;28;20037;-46
2023/05/29 02:30:50;;;;;;;7.43;0.90;;;;;;;9.18;61.43;101388.94;5021086;28;20812;-45
2023/05/29 02:33:19;;;;;;;6.05;1.00;;;;;;;9.15;61.55;101381.09;5022136;28;20081;-45
2023/05/29 02:35:46;;;;;;;8.00;0.52;;;;;;;9.10;61.32;101382.72;5022561;28;20038;-51
2023/05/29 02:38:15;;;;;;;10.00;1.40;;;;;;;9.07;61.35;101383.50;5017145;28;20172;-46
2023/05/29 02:40:41;;;;;;;3.00;0.73;;;;;;;9.04;61.36;101390.31;5008247;28;20054;-46
2023/05/29 02:43:09;;;;;;;9.85;0.90;;;;;;;9.01;62.06;101388.53;5008790;28;20058;-45
2023/05/29 02:45:36;;;;;;;6.03;1.10;;;;;;;8.98;61.69;101389.31;5006441;28;20045;-47
2023/05/29 02:48:03;;;;;;;4.13;0.90;;;;;;;8.97;62.37;101385.00;5008411;28;20049;-45
2023/05/29 02:50:30;;;;;;;10.02;1.05;;;;;;;8.95;61.77;101383.22;5007689;28;20049;-44
2023/05/29 02:52:57;;;;;;;3.20;0.73;;;;;;;8.93;62.36;101370.25;5007686;28;20049;-46
2023/05/29 02:55:23;;;;;;;4.57;1.02;;;;;;;8.91;62.19;101374.50;5008999;28;20658;-46
2023/05/29 02:57:52;;;;;;;5.32;1.10;;;;;;;8.89;61.51;101373.59;5008104;28;20042;-46
2023/05/29 03:00:20;;;;;;;2.45;0.77;;;;;;;8.87;61.63;101380.41;5005256;28;20057;-48
2023/05/29 03:02:47;;;;;;;5.90;1.30;;;;;;;8.85;61.83;101382.09;5011055;28;20128;-43
2023/05/29 03:05:14;;;;;;;5.25;0.63;;;;;;;8.83;62.42;101378.59;5006585;28;20054;-45
2023/05/29 03:07:41;;;;;;;5.05;0.75;;;;;;;8.82;61.58;101382.03;5008301;28;20775;-47
2023/05/29 03:10:09;;;;;;;2.97;1.90;;;;;;;8.80;62.03;101379.38;5008047;28;20443;-48
2023/05/29 03:12:36;;;;;;;7.38;1.65;;;;;;;8.79;61.66;101374.19;5003978;28;20441;-45
2023/05/29 03:15:03;;;;;;;5.38;0.77;;;;;;;8.79;61.97;101381.94;5007387;28;20054;-47
2023/05/29 03:17:30;;;;;;;6.88;1.88;;;;;;;8.75;62.15;101373.25;5005403;28;20049;-45
2023/05/29 03:19:57;;;;;;;5.45;0.82;;;;;;;8.74;62.27;101382.69;5007709;28;20045;-46
2023/05/29 03:22:24;;;;;;;7.18;1.23;;;;;;;8.71;62.17;101380.03;5006674;28;20591;-43
2023/05/29 03:24:50;;;;;;;8.88;1.83;;;;;;;8.68;62.65;101369.59;5006146;28;20151;-46
2023/05/29 03:27:17;;;;;;;3.70;0.75;;;;;;;8.70;61.86;101378.28;5002969;28;20065;-45
2023/05/29 03:29:43;;;;;;;3.47;0.70;;;;;;;8.68;62.75;101387.69;5005203;28;20112;-47
2023/05/29 03:32:10;;;;;;;3.22;0.98;;;;;;;8.67;62.27;101382.47;5008007;28;20048;-45
2023/05/29 03:34:37;;;;;;;7.55;1.25;;;;;;;8.63;62.48;101376.34;5007522;28;20042;-46
2023/05/29 03:37:03;;;;;;;5.75;1.02;;;;;;;8.61;62.42;101383.19;5007778;28;20050;-45
2023/05/29 03:39:30;;;;;;;3.00;0.63;;;;;;;8.59;62.67;101382.28;5004825;28;20050;-45
2023/05/29 03:41:57;;;;;;;5.80;1.00;;;;;;;8.56;63.64;101380.50;5005784;28;20045;-46
2023/05/29 03:44:23;;;;;;;4.05;0.75;;;;;;;8.53;62.83;101379.47;5002545;28;20148;-45
2023/05/29 03:46:51;;;;;;;4.80;0.85;;;;;;;8.52;63.42;101377.75;5005302;28;20050;-44
2023/05/29 03:49:17;;;;;;;5.90;1.42;;;;;;;8.49;62.79;101379.41;5007640;28;20053;-44
2023/05/29 03:51:44;;;;;;;3.42;0.55;;;;;;;8.49;62.65;101389.72;5006103;28;20046;-45
2023/05/29 03:54:10;;;;;;;4.88;1.00;;;;;;;8.48;63.21;101387.13;5004333;28;20061;-44
2023/05/29 03:56:37;;;;;;;5.97;1.27;;;;;;;8.47;63.41;101391.41;5007758;28;20104;-45
2023/05/29 03:59:04;;;;;;;6.18;2.40;;;;;;;8.46;63.80;101389.66;5007349;28;20438;-46
2023/05/29 04:01:30;;;;;;;4.75;1.20;;;;;;;8.46;63.67;101393.94;5005229;28;20072;-43
2023/05/29 04:03:57;;;;;;;4.85;0.70;;;;;;;8.45;63.44;101387.91;5001982;28;20045;-44
2023/05/29 04:06:24;;;;;;;5.57;1.08;;;;;;;8.43;63.66;101389.56;5001967;28;20073;-48
2023/05/29 04:08:51;;;;;;;5.50;0.90;;;;;;;8.43;62.70;101388.69;5007762;28;20561;-45
2023/05/29 04:11:20;;;;;;;3.55;0.77;;;;;;;8.41;62.79;101391.22;5005702;28;20054;-44
2023/05/29 04:13:48;;;;;;;4.97;0.98;;;;;;;8.41;63.67;101395.53;4999918;28;20092;-45
2023/05/29 04:16:15;;;;;;;8.10;0.75;;;;;;;8.40;63.26;101394.66;5005747;28;20505;-45
2023/05/29 04:18:42;;;;;;;6.22;0.75;;;;;;;8.42;63.35;101393.00;5007104;28;20041;-48
2023/05/29 04:21:08;;;;;;;6.80;1.33;;;;;;;8.42;63.49;101392.09;5006087;28;20066;-46
2023/05/29 04:23:35;;;;;;;7.18;0.70;;;;;;;8.46;63.10;101392.25;5007636;28;20100;-44
2023/05/29 04:26:02;;;;;;;7.13;0.70;;;;;;;8.47;63.77;101386.25;5006823;28;20048;-45
2023/05/29 04:28:29;;;;;;;8.30;1.92;;;;;;;8.52;63.93;101382.91;5007051;28;20485;-43
2023/05/29 04:30:56;;;;;;;4.20;0.95;;;;;;;8.56;63.26;101395.09;5006837;28;20057;-44
2023/05/29 04:33:23;;;;;;;5.32;0.95;;;;;;;8.59;63.24;101392.59;5007066;28;20128;-44
2023/05/29 04:35:50;;;;;;;4.25;1.30;;;;;;;8.64;63.38;101396.19;5005235;28;20050;-47
2023/05/29 04:38:17;;;;;;;1.67;0.60;;;;;;;8.67;63.49;101393.69;5006383;28;20042;-47
2023/05/29 04:40:44;;;;;;;5.40;0.52;;;;;;;8.74;64.43;101395.59;5006335;28;20042;-46
2023/05/29 04:43:11;;;;;;;4.32;0.90;;;;;;;8.79;64.29;101397.44;5006412;28;20478;-45
2023/05/29 04:45:37;;;;;;;5.25;1.20;;;;;;;8.82;63.49;101387.19;5006105;28;20103;-47
2023/05/29 04:48:04;;;;;;;4.05;0.60;;;;;;;8.86;64.23;101394.19;5006804;28;20597;-46
2023/05/29 04:50:31;;;;;;;7.38;0.73;;;;;;;8.90;63.99;101401.19;5004254;28;20107;-48
2023/05/29 04:52:58;;;;;;;4.47;0.57;;;;;;;8.96;64.37;101396.19;5004856;28;20092;-45
2023/05/29 04:55:24;;;;;;;5.65;0.80;;;;;;;8.99;64.22;101396.22;5005915;28;20084;-45
2023/05/29 04:57:51;;;;;;;4.75;0.80;;;;;;;9.05;64.54;101399.81;5006074;28;20049;-48
2023/05/29 05:00:18;;;;;;;5.25;0.98;;;;;;;9.09;64.06;101404.25;5001342;28;20053;-44
2023/05/29 05:02:46;;;;;;;4.68;0.93;;;;;;;9.13;64.20;101411.22;5005637;28;20042;-44
2023/05/29 05:05:13;;;;;;;7.15;1.33;;;;;;;9.20;64.07;101402.78;5006085;28;20050;-44
2023/05/29 05:07:39;;;;;;;4.32;1.00;;;;;;;9.24;63.99;101409.78;5005441;28;20054;-48
2023/05/29 05:10:07;;;;;;;5.13;0.70;;;;;;;9.32;63.37;101414.28;5005594;28;20042;-48
2023/05/29 05:12:34;;;;;;;3.95;0.90;;;;;;;9.36;63.89;101416.09;5005556;28;20064;-45
2023/05/29 05:15:00;;;;;;;4.35;1.02;;;;;;;9.40;63.68;101417.91;5003978;28;20638;-44
2023/05/29 05:17:27;;;;;;;4.30;1.05;;;;;;;9.46;63.74;101418.06;4986856;28;20065;-46
2023/05/29 05:19:54;;;;;;;3.58;1.00;;;;;;;9.52;63.65;101413.03;5033260;28;20053;-44
2023/05/29 05:22:21;;;;;;;6.35;0.95;;;;;;;9.66;63.49;101409.03;5006402;28;20050;-43
2023/05/29 05:24:47;;;;;;;3.55;0.80;;;;;;;9.82;63.79;101415.41;5005861;28;20064;-46
2023/05/29 05:27:14;;;;;;;8.30;1.20;;;;;;;9.94;63.54;101420.88;5004291;28;20046;-47
2023/05/29 05:29:41;;;;;;;6.10;1.30;;;;;;;10.02;63.70;101416.72;5005283;28;20049;-45
2023/05/29 05:32:07;;;;;;;4.30;0.88;;;;;;;10.13;63.47;101416.97;5005095;28;20968;-45
2023/05/29 05:34:34;;;;;;;8.13;1.33;;;;;;;10.27;63.93;101419.81;5010021;28;20132;-44
2023/05/29 05:37:02;;;;;;;2.75;0.63;;;;;;;10.43;63.82;101419.28;5006156;28;20057;-44
2023/05/29 05:39:29;;;;;;;5.65;0.68;;;;;;;10.57;63.56;101417.00;5005689;28;20046;-44
2023/05/29 05:41:56;;;;;;;3.65;1.00;;;;;;;10.67;63.71;101414.59;5004377;28;20120;-46
2023/05/29 05:44:22;;;;;;;7.43;1.17;;;;;;;10.75;63.32;101417.34;5004801;28;20137;-45
2023/05/29 05:46:49;;;;;;;8.85;1.13;;;;;;;10.73;63.43;101412.97;5004979;28;20068;-44
2023/05/29 05:49:16;;;;;;;5.93;0.98;;;;;;;10.71;62.87;101410.34;5005843;28;20042;-49
2023/05/29 05:51:42;;;;;;;4.95;0.95;;;;;;;10.73;62.52;101421.63;5008607;28;20068;-46
2023/05/29 05:54:10;;;;;;;4.07;0.80;;;;;;;10.76;62.90;101419.09;5000612;28;20061;-45
2023/05/29 05:56:36;;;;;;;3.95;0.80;;;;;;;10.82;62.48;101423.50;5006304;28;20050;-45
2023/05/29 05:59:03;;;;;;;5.25;1.05;;;;;;;10.84;63.12;101421.81;5003725;28;20541;-46
2023/05/29 06:01:30;;;;;;;6.55;0.85;;;;;;;10.88;62.98;101417.56;5005594;28;20076;-49
2023/05/29 06:03:56;;;;;;;5.18;0.73;;;;;;;10.88;62.86;101417.56;5004830;28;20054;-45
2023/05/29 06:06:23;;;;;;;7.22;1.63;;;;;;;10.91;62.32;101428.84;5003043;28;20050;-46
2023/05/29 06:08:50;;;;;;;3.80;0.80;;;;;;;10.95;62.22;101428.91;5000991;28;20057;-46
2023/05/29 06:11:17;;;;;;;4.03;0.70;;;;;;;11.00;62.70;101425.56;5005372;28;20050;-46
2023/05/29 06:13:43;;;;;;;5.22;1.05;;;;;;;11.04;62.44;101429.94;5005338;28;20133;-46
2023/05/29 06:16:10;;;;;;;6.97;1.08;;;;;;;11.11;61.98;101435.25;5009414;28;20486;-44
2023/05/29 06:18:37;;;;;;;3.10;0.90;;;;;;;11.18;62.07;101431.94;5008790;28;20034;-46
2023/05/29 06:21:04;;;;;;;3.30;0.90;;;;;;;11.27;62.16;101434.66;5008020;28;20116;-46
2023/05/29 06:23:31;;;;;;;5.43;0.50;;;;;;;11.35;62.22;101439.09;5008442;28;20050;-43
2023/05/29 06:25:58;;;;;;;5.45;0.82;;;;;;;11.42;61.64;101439.22;5005757;28;20077;-46
2023/05/29 06:28:24;;;;;;;7.53;1.27;;;;;;;11.51;62.68;101442.81;5007114;28;20049;-46
2023/05/29 06:30:51;;;;;;;3.60;0.65;;;;;;;11.56;61.21;101444.63;5006928;28;20038;-45
2023/05/29 06:33:18;;;;;;;6.82;1.33;;;;;;;11.62;61.25;101450.78;5009022;28;20053;-46
2023/05/29 06:35:44;;;;;;;8.88;1.00;;;;;;;11.69;62.01;101452.63;5008929;28;20513;-46
2023/05/29 06:38:11;;;;;;;3.90;0.80;;;;;;;11.73;61.38;101457.00;5008609;28;20049;-43
2023/05/29 06:40:37;;;;;;;3.25;1.08;;;;;;;11.80;62.39;101463.16;5005714;28;20392;-45
2023/05/29 06:43:04;;;;;;;1.40;0.93;;;;;;;11.86;61.14;101458.06;5007083;28;20045;-44
2023/05/29 06:45:31;;;;;;;4.07;0.80;;;;;;;11.94;62.23;101455.56;5008207;28;20038;-44
2023/05/29 06:47:58;;;;;;;7.57;0.68;;;;;;;11.96;60.67;101459.06;5016669;28;20065;-48
2023/05/29 06:50:24;;;;;;;1.73;0.55;;;;;;;11.96;60.79;101459.06;5007022;28;20539;-44
2023/05/29 06:52:51;;;;;;;5.65;1.05;;;;;;;11.99;60.81;101469.47;5006921;28;20103;-46
2023/05/29 06:55:19;;;;;;;2.85;0.75;;;;;;;12.11;61.15;101466.22;5003308;28;20046;-44
2023/05/29 06:57:45;;;;;;;5.57;0.98;;;;;;;12.29;61.07;101473.38;5000941;28;20054;-44
2023/05/29 07:00:13;;;;;;;3.60;0.57;;;;;;;12.44;61.66;101466.63;5008894;28;20061;-45
2023/05/29 07:02:39;;;;;;;4.70;0.77;;;;;;;12.68;61.27;101466.06;5006558;28;20699;-46
2023/05/29 07:05:07;;;;;;;5.07;0.90;;;;;;;12.84;61.30;101463.63;5008185;28;20045;-47
2023/05/29 07:07:33;;;;;;;9.00;1.05;;;;;;;13.05;59.94;101465.59;5007412;28;20050;-45
2023/05/29 07:10:00;;;;;;;5.22;0.70;;;;;;;13.20;59.50;101461.34;5006938;28;20061;-45
2023/05/29 07:12:27;;;;;;;5.63;0.98;;;;;;;13.31;59.01;101472.72;5007364;28;20073;-45
2023/05/29 07:14:53;;;;;;;5.50;2.13;;;;;;;13.43;58.50;101468.50;5008839;28;20429;-44
2023/05/29 07:17:20;;;;;;;6.60;1.05;;;;;;;13.52;58.82;101468.63;5008504;28;20061;-46
2023/05/29 07:19:49;;;;;;;6.07;0.90;;;;;;;13.49;58.45;101466.00;5007474;28;20536;-44
2023/05/29 07:22:16;;;;;;;7.55;0.70;;;;;;;13.42;57.91;101472.84;5003307;28;20077;-45
2023/05/29 07:24:42;;;;;;;4.82;0.50;;;;;;;13.42;57.33;101472.84;5006290;28;20122;-45
2023/05/29 07:27:09;;;;;;;3.30;0.47;;;;;;;13.42;58.36;101471.97;5007819;28;20058;-46
2023/05/29 07:29:36;;;;;;;4.03;0.95;;;;;;;13.39;58.07;101484.94;5008002;28;20061;-44
2023/05/29 07:32:02;;;;;;;3.90;0.70;;;;;;;13.41;58.63;101488.44;5007904;28;20156;-44
2023/05/29 07:34:29;;;;;;;4.60;1.05;;;;;;;13.41;57.94;101478.03;5005151;28;20052;-44
2023/05/29 07:37:03;;;;;;;3.67;0.60;;;;;;;13.40;58.06;101476.31;5007751;28;20042;-47
2023/05/29 07:39:31;;;;;;;5.43;0.80;;;;;;;13.43;58.20;101481.50;5003370;28;20077;-48
2023/05/29 07:41:57;;;;;;;3.92;0.60;;;;;;;13.47;57.21;101478.06;5007806;28;20050;-46
2023/05/29 07:44:24;;;;;;;3.53;0.80;;;;;;;13.53;57.77;101478.16;5008844;28;20053;-46
2023/05/29 07:46:51;;;;;;;4.43;1.10;;;;;;;13.56;57.81;101487.72;5006269;28;20053;-43
2023/05/29 07:49:20;;;;;;;3.58;0.70;;;;;;;13.59;58.04;101493.84;4998125;28;20089;-46
2023/05/29 07:51:46;;;;;;;4.85;0.82;;;;;;;13.62;57.40;101482.56;5007004;28;20545;-45
2023/05/29 07:54:13;;;;;;;7.03;0.98;;;;;;;13.65;57.75;101487.81;5004351;28;20053;-45
2023/05/29 07:56:40;;;;;;;6.68;0.70;;;;;;;13.63;57.91;101473.91;5008261;28;20064;-43
2023/05/29 07:59:08;;;;;;;3.13;0.70;;;;;;;13.68;57.90;101487.81;5003853;28;20589;-46
2023/05/29 08:01:36;;;;;;;3.58;0.60;;;;;;;13.68;57.83;101481.75;5007672;28;20057;-45
2023/05/29 08:04:03;;;;;;;2.20;0.57;;;;;;;13.77;57.21;101487.00;5006500;28;20053;-46
2023/05/29 08:06:34;;;;;;;6.60;0.68;;;;;;;13.78;57.10;101483.53;5005805;28;20053;-44
2023/05/29 08:09:01;;;;;;;3.40;1.15;;;;;;;13.74;57.95;101492.19;5005940;28;20058;-46
2023/05/29 08:11:28;;;;;;;5.00;0.60;;;;;;;13.88;57.43;101495.78;5006559;28;20643;-46
2023/05/29 08:13:55;;;;;;;5.47;0.68;;;;;;;14.15;58.08;101503.75;5004641;28;20077;-46
2023/05/29 08:16:22;;;;;;;5.63;0.77;;;;;;;14.58;58.21;101486.56;5005860;28;20054;-47
2023/05/29 08:18:49;;;;;;;4.25;1.00;;;;;;;14.86;57.09;101492.78;5007741;28;20046;-46
2023/05/29 08:21:15;;;;;;;6.47;1.38;;;;;;;14.94;56.48;101492.81;5003919;28;20237;-43
2023/05/29 08:23:42;;;;;;;2.60;0.82;;;;;;;14.95;56.44;101491.94;5003836;28;20050;-44
2023/05/29 08:26:09;;;;;;;5.00;1.08;;;;;;;14.94;55.77;101498.03;5006688;28;20054;-45
2023/05/29 08:28:35;;;;;;;4.78;0.75;;;;;;;14.75;55.02;101494.44;5001456;28;20053;-45
2023/05/29 08:31:02;;;;;;;3.53;0.82;;;;;;;14.69;54.20;101499.66;5002312;28;20128;-46
2023/05/29 08:33:30;;;;;;;4.20;0.90;;;;;;;14.48;54.13;101503.91;5004011;28;20046;-46
2023/05/29 08:35:58;;;;;;;4.00;0.93;;;;;;;14.42;54.68;101496.94;5007310;28;20089;-46
2023/05/29 08:38:26;;;;;;;4.70;0.65;;;;;;;14.24;54.92;101508.13;5007391;28;20053;-48
2023/05/29 08:40:56;;;;;;;3.40;0.60;;;;;;;14.19;54.61;101499.44;5006935;28;20092;-47
2023/05/29 08:43:23;;;;;;;3.67;1.00;;;;;;;14.09;54.76;101496.75;5006876;28;20058;-45
2023/05/29 08:45:54;;;;;;;4.65;1.33;;;;;;;13.96;54.51;101497.56;5003841;28;20137;-44
2023/05/29 08:48:25;;;;;;;4.60;0.80;;;;;;;13.92;54.10;101506.22;5005682;28;20079;-46
2023/05/29 08:50:54;;;;;;;3.35;0.65;;;;;;;14.00;54.30;101514.94;5005930;28;20045;-44
2023/05/29 08:53:22;;;;;;;2.42;0.82;;;;;;;14.09;54.20;101519.34;4999972;28;20061;-46
2023/05/29 08:55:51;;;;;;;4.00;0.80;;;;;;;14.09;54.48;101509.78;5017295;28;20490;-50
2023/05/29 08:58:21;;;;;;;2.35;0.60;;;;;;;14.22;53.90;101515.09;5006807;28;20112;-45
2023/05/29 09:00:49;;;;;;;3.80;0.60;;;;;;;14.24;52.97;101505.53;5005851;28;20046;-46
2023/05/29 09:03:15;;;;;;;5.32;2.63;;;;;;;14.34;53.24;101509.94;5004554;28;20458;-49
2023/05/29 09:05:44;;;;;;;6.32;0.70;;;;;;;14.36;53.86;101502.97;5006523;28;20049;-46
2023/05/29 09:08:12;;;;;;;5.38;1.30;;;;;;;14.42;53.88;101511.72;5005245;28;20697;-45
2023/05/29 09:10:41;;;;;;;5.70;0.98;;;;;;;14.43;54.57;101511.72;5005085;28;20050;-47
2023/05/29 09:13:09;;;;;;;3.65;1.40;;;;;;;14.46;54.39;101523.91;5004302;28;20056;-45
2023/05/29 09:15:38;;;;;;;3.72;0.65;;;;;;;14.51;54.22;101522.19;5004554;28;20108;-47
2023/05/29 09:18:05;;;;;;;5.60;1.00;;;;;;;14.50;54.38;101515.22;4998234;28;20046;-45
2023/05/29 09:20:33;;;;;;;5.43;0.90;;;;;;;14.52;54.37;101519.56;5006033;28;20049;-43
2023/05/29 09:23:02;;;;;;;2.35;0.65;;;;;;;14.53;54.11;101517.84;5005218;28;20054;-45
2023/05/29 09:25:32;;;;;;;7.05;2.80;;;;;;;14.56;53.87;101520.44;5002576;28;20273;-46
2023/05/29 09:28:02;;;;;;;;;;;;;;;14.46;54.10;101513.47;5005854;28;20567;-44
2023/05/29 09:30:40;;;;;;;1.67;0.90;;;;;;;14.58;53.59;101515.25;5005791;28;19922;-46
2023/05/29 09:33:09;;;;;;;6.13;1.20;;;;;;;14.63;53.31;101516.16;5006377;28;20050;-48
2023/05/29 09:35:40;;;;;;;5.28;1.10;;;;;;;14.67;53.04;101515.28;5006749;28;20050;-45
2023/05/29 09:38:08;;;;;;;5.03;1.23;;;;;;;14.68;53.00;101509.22;5005625;28;20048;-49
2023/05/29 09:40:37;;;;;;;2.90;0.95;;;;;;;14.64;53.15;101513.56;5002653;28;20047;-47
2023/05/29 09:43:10;;;;;;;5.15;1.02;;;;;;;14.72;53.87;101510.06;5005973;28;20050;-47
2023/05/29 09:45:38;;;;;;;3.47;1.02;;;;;;;14.76;53.13;101514.47;4999246;28;20049;-47
2023/05/29 09:48:07;;;;;;;4.82;1.00;;;;;;;14.76;53.02;101507.50;5004160;28;20050;-44
2023/05/29 09:50:34;;;;;;;1.42;0.73;;;;;;;14.82;52.94;101511.88;5009298;28;20038;-44
2023/05/29 09:53:01;;;;;;;6.25;0.82;;;;;;;14.95;52.61;101511.91;5006799;28;20070;-46
2023/05/29 09:55:31;;;;;;;3.42;0.90;;;;;;;15.03;52.40;101510.22;5021844;28;20072;-45
2023/05/29 09:57:59;;;;;;;2.95;0.88;;;;;;;15.08;53.08;101513.72;5009565;28;20068;-44
2023/05/29 10:00:26;;;;;;;3.17;0.82;;;;;;;15.13;52.75;101514.56;5007810;28;20041;-46
2023/05/29 10:02:52;;;;;;;2.47;0.70;;;;;;;15.19;52.53;101510.25;5010495;28;20045;-46
2023/05/29 10:05:21;;;;;;;4.07;1.23;;;;;;;15.14;52.06;101513.69;5012848;28;20444;-45
2023/05/29 10:07:52;;;;;;;3.80;1.70;;;;;;;15.11;52.20;101512.84;5006519;28;20590;-45
2023/05/29 10:10:19;;;;;;;2.42;0.50;;;;;;;15.12;52.61;101517.19;5009209;28;20046;-47
2023/05/29 10:12:48;;;;;;;4.43;1.25;;;;;;;15.14;52.45;101512.84;5007256;28;20050;-48
2023/05/29 10:15:17;;;;;;;4.75;1.33;;;;;;;15.16;52.52;101525.03;5006228;28;20049;-48
2023/05/29 10:17:52;;;;;;;3.53;0.82;;;;;;;15.25;52.09;101515.47;5007305;28;20050;-46
2023/05/29 10:20:21;;;;;;;1.55;0.57;;;;;;;15.34;52.34;101515.50;5005809;28;20060;-44
2023/05/29 10:22:50;;;;;;;4.45;0.88;;;;;;;15.32;52.52;101527.66;4990436;28;20100;-45
2023/05/29 10:25:20;;;;;;;7.82;1.25;;;;;;;15.28;51.36;101520.69;5013206;28;20059;-47
2023/05/29 10:27:48;;;;;;;3.70;1.10;;;;;;;15.23;51.94;101520.69;4990476;28;20042;-45
2023/05/29 10:30:41;;;;;;;3.70;1.02;;;;;;;15.21;51.80;101511.13;5008735;28;20049;-48
2023/05/29 10:36:07;;;;;;;5.25;0.90;;;;;;;15.43;52.49;101514.59;5054682;28;20406;-45
2023/05/29 10:38:34;;;;;;;3.65;0.70;;;;;;;15.57;52.58;101512.00;5050636;28;20045;-46
2023/05/29 10:44:02;;;;;;;3.08;1.98;;;;;;;15.76;51.55;101509.38;5029304;27;20398;-45
2023/05/29 10:49:21;;;;;;;6.07;1.48;;;;;;;15.80;50.98;101509.38;5040840;28;20398;-50
2023/05/29 10:51:48;;;;;;;4.63;0.80;;;;;;;15.81;50.68;101510.25;5024326;28;20505;-43
2023/05/29 10:54:16;;;;;;;6.13;0.85;;;;;;;15.85;51.40;101512.00;5003681;28;20072;-44
2023/05/29 10:56:51;;;;;;;4.20;0.50;;;;;;;15.94;51.20;101511.97;5011980;28;20124;-47
2023/05/29 10:59:18;;;;;;;5.85;1.50;;;;;;;16.04;51.02;101514.59;5018319;28;20045;-44
2023/05/29 11:01:45;;;;;;;3.33;0.82;;;;;;;16.10;50.96;101506.75;5008884;28;20042;-44
2023/05/29 11:06:52;;;;;;;5.05;1.67;;;;;;;16.73;49.97;101506.50;5051577;27;20412;-48
2023/05/29 11:09:37;;;;;;;8.02;2.67;;;;;;;16.72;50.98;101505.63;5013227;28;21479;-45
2023/05/29 11:12:32;;;;;;;4.88;2.35;;;;;;;16.79;49.98;101509.13;5014899;28;20052;-47
2023/05/29 11:15:08;;;;;;;4.35;2.30;;;;;;;16.84;50.14;101504.72;5016518;28;20056;-44
2023/05/29 11:23:02;;;;;;;3.58;1.05;;;;;;;17.26;49.86;101503.63;5029591;28;20505;-44
2023/05/29 11:25:28;;;;;;;3.53;1.05;;;;;;;17.26;49.42;101506.22;5019397;28;20038;-44
2023/05/29 11:27:55;;;;;;;3.35;1.02;;;;;;;17.43;49.19;101504.34;5020097;28;20052;-45
2023/05/29 11:30:22;;;;;;;2.20;1.02;;;;;;;17.59;48.48;101505.09;5012555;28;20069;-46
2023/05/29 11:32:52;;;;;;;4.22;0.85;;;;;;;17.69;48.75;101495.38;5021663;28;20845;-45
2023/05/29 11:35:22;;;;;;;5.90;1.30;;;;;;;17.69;47.48;101500.63;5016290;28;20046;-46
2023/05/29 11:37:50;;;;;;;5.40;1.10;;;;;;;17.73;47.45;101486.63;5011798;28;20053;-45
2023/05/29 11:40:17;;;;;;;4.13;1.13;;;;;;;17.70;48.28;101494.50;5017698;28;20042;-45
2023/05/29 11:42:48;;;;;;;3.85;1.20;;;;;;;17.71;47.91;101493.63;5021508;28;20053;-43
2023/05/29 11:50:32;;;;;;;4.65;2.25;;;;;;;17.78;47.05;101497.06;5055036;27;20385;-46
2023/05/29 11:53:00;;;;;;;5.43;2.42;;;;;;;17.93;47.48;101496.03;5016915;28;20054;-46
2023/05/29 11:55:27;;;;;;;3.83;0.88;;;;;;;18.17;47.62;101491.44;4994019;28;20575;-46
2023/05/29 11:58:00;;;;;;;3.85;1.80;;;;;;;18.29;47.17;101494.78;4996789;28;20100;-46
2023/05/29 12:00:31;;;;;;;3.15;2.72;;;;;;;18.37;47.20;101503.44;5032292;28;20061;-46
2023/05/29 12:03:03;;;;;;;10.00;2.15;;;;;;;18.42;47.15;101503.38;5001536;28;20880;-46